RYR9ZE LGSA-EPKK
Flight info
| Callsign | RYR9ZE |
|---|---|
| Flight time | N/A |
| Altitude | 36000 |
| Route | SOKRI UY151 VELOP DCT ATV UM749 SKP UL617 BAMOS DCT PEREN DCT ATFIR N133 USALI DCT ERDOM DCT NARKA DCT KSC DCT KOJOT DCT RAZEC N133 LENOV |
| Aircraft | B738/M-SDE2E3FGHIRWXY/LB1 |
Departure
| Time | N/A |
|---|---|
| Airport | Chania International Airport (LGSA) |
Arrival
| Time | 2026-05-01 13:11 |
|---|---|
| Airport | Kraków John Paul II International Airport (EPKK) |
| Time | Latitude | Longitude | Altitude | Speed | Heading |
|---|---|---|---|---|---|
| 2026-05-01 12:40 | 48.30544 | 21.41250 | 36321 ft | 395 kts | 351° |
| 2026-05-01 12:40 | 48.35822 | 21.38965 | 36331 ft | 395 kts | 351° |
| 2026-05-01 12:41 | 48.41102 | 21.36676 | 36324 ft | 395 kts | 351° |
| 2026-05-01 12:41 | 48.46310 | 21.34406 | 36026 ft | 383 kts | 351° |
| 2026-05-01 12:42 | 48.48837 | 21.33301 | 35744 ft | 376 kts | 351° |
| 2026-05-01 12:42 | 48.51337 | 21.32211 | 35416 ft | 371 kts | 352° |
| 2026-05-01 12:42 | 48.53805 | 21.31136 | 35040 ft | 368 kts | 352° |
| 2026-05-01 12:42 | 48.56257 | 21.30067 | 34685 ft | 365 kts | 352° |
| 2026-05-01 12:43 | 48.58691 | 21.29005 | 34325 ft | 362 kts | 353° |
| 2026-05-01 12:43 | 48.61102 | 21.27952 | 33873 ft | 359 kts | 352° |
| 2026-05-01 12:43 | 48.63488 | 21.26908 | 33538 ft | 355 kts | 352° |
| 2026-05-01 12:43 | 48.65849 | 21.25873 | 33162 ft | 352 kts | 352° |
| 2026-05-01 12:44 | 48.68184 | 21.24847 | 32817 ft | 348 kts | 352° |
| 2026-05-01 12:44 | 48.70508 | 21.23916 | 32481 ft | 342 kts | 355° |
| 2026-05-01 12:44 | 48.75102 | 21.22301 | 31783 ft | 336 kts | 355° |
| 2026-05-01 12:45 | 48.79631 | 21.20719 | 31123 ft | 332 kts | 355° |
| 2026-05-01 12:45 | 48.81868 | 21.19925 | 30804 ft | 329 kts | 355° |
| 2026-05-01 12:45 | 48.84094 | 21.19130 | 30463 ft | 328 kts | 355° |
| 2026-05-01 12:46 | 48.86308 | 21.18336 | 30101 ft | 326 kts | 355° |
| 2026-05-01 12:46 | 48.88501 | 21.17547 | 29762 ft | 322 kts | 355° |
| 2026-05-01 12:46 | 48.90676 | 21.16762 | 29395 ft | 320 kts | 355° |
| 2026-05-01 12:46 | 48.92827 | 21.15986 | 29071 ft | 316 kts | 355° |
| 2026-05-01 12:47 | 48.94953 | 21.15218 | 28733 ft | 313 kts | 355° |
| 2026-05-01 12:47 | 48.97062 | 21.14455 | 28388 ft | 310 kts | 355° |
| 2026-05-01 12:47 | 48.99144 | 21.13694 | 28060 ft | 306 kts | 355° |
| 2026-05-01 12:47 | 49.01205 | 21.12930 | 27685 ft | 304 kts | 355° |
| 2026-05-01 12:48 | 49.03248 | 21.12172 | 27410 ft | 300 kts | 355° |
| 2026-05-01 12:48 | 49.05275 | 21.11421 | 27082 ft | 300 kts | 355° |
| 2026-05-01 12:48 | 49.07308 | 21.10669 | 26772 ft | 303 kts | 355° |
| 2026-05-01 12:48 | 49.09369 | 21.09912 | 26469 ft | 315 kts | 355° |
| 2026-05-01 12:49 | 49.11520 | 21.09117 | 26128 ft | 319 kts | 354° |
| 2026-05-01 12:49 | 49.13674 | 21.08317 | 25778 ft | 317 kts | 355° |
| 2026-05-01 12:49 | 49.15811 | 21.07532 | 25428 ft | 315 kts | 355° |
| 2026-05-01 12:49 | 49.17929 | 21.06755 | 25102 ft | 312 kts | 355° |
| 2026-05-01 12:50 | 49.20034 | 21.05983 | 24775 ft | 310 kts | 355° |
| 2026-05-01 12:50 | 49.22117 | 21.05220 | 24464 ft | 307 kts | 355° |
| 2026-05-01 12:50 | 49.24189 | 21.04460 | 24140 ft | 305 kts | 355° |
| 2026-05-01 12:50 | 49.26249 | 21.03704 | 23822 ft | 303 kts | 355° |
| 2026-05-01 12:51 | 49.28296 | 21.02952 | 23439 ft | 302 kts | 354° |
| 2026-05-01 12:51 | 49.30339 | 21.02201 | 23096 ft | 301 kts | 354° |
| 2026-05-01 12:51 | 49.34215 | 20.99732 | 22489 ft | 314 kts | 330° |
| 2026-05-01 12:52 | 49.35783 | 20.97313 | 22161 ft | 323 kts | 321° |
| 2026-05-01 12:52 | 49.38642 | 20.92027 | 21503 ft | 319 kts | 319° |
| 2026-05-01 12:52 | 49.40035 | 20.89410 | 21205 ft | 315 kts | 319° |
| 2026-05-01 12:53 | 49.42815 | 20.84254 | 20598 ft | 312 kts | 319° |
| 2026-05-01 12:53 | 49.44199 | 20.81708 | 20290 ft | 309 kts | 319° |
| 2026-05-01 12:53 | 49.45576 | 20.79181 | 20000 ft | 308 kts | 319° |
| 2026-05-01 12:54 | 49.46950 | 20.76662 | 19696 ft | 307 kts | 319° |
| 2026-05-01 12:54 | 49.49676 | 20.71660 | 19099 ft | 303 kts | 319° |
| 2026-05-01 12:54 | 49.51026 | 20.69181 | 18814 ft | 302 kts | 319° |
| 2026-05-01 12:55 | 49.53703 | 20.64265 | 18164 ft | 300 kts | 319° |
| 2026-05-01 12:55 | 49.55039 | 20.61806 | 17849 ft | 299 kts | 319° |
| 2026-05-01 12:55 | 49.56371 | 20.59351 | 17526 ft | 298 kts | 318° |
| 2026-05-01 12:56 | 49.57694 | 20.56908 | 17255 ft | 295 kts | 318° |
| 2026-05-01 12:56 | 49.59004 | 20.54483 | 17050 ft | 294 kts | 318° |
| 2026-05-01 12:56 | 49.60340 | 20.52014 | 16826 ft | 299 kts | 318° |
| 2026-05-01 12:56 | 49.61666 | 20.49561 | 16612 ft | 304 kts | 318° |
| 2026-05-01 12:57 | 49.63027 | 20.47039 | 16389 ft | 307 kts | 317° |
| 2026-05-01 12:57 | 49.65750 | 20.41971 | 15912 ft | 306 kts | 317° |
| 2026-05-01 12:57 | 49.67107 | 20.39440 | 15669 ft | 306 kts | 317° |
| 2026-05-01 12:58 | 49.68462 | 20.36914 | 15443 ft | 305 kts | 317° |
| 2026-05-01 12:58 | 49.69812 | 20.34393 | 15211 ft | 303 kts | 317° |
| 2026-05-01 12:58 | 49.71144 | 20.31904 | 15008 ft | 299 kts | 317° |
| 2026-05-01 12:59 | 49.73759 | 20.27013 | 14555 ft | 291 kts | 317° |
| 2026-05-01 12:59 | 49.75040 | 20.24616 | 14327 ft | 287 kts | 317° |
| 2026-05-01 12:59 | 49.78028 | 20.20983 | 12529 ft | 294 kts | 357° |
| 2026-05-01 13:00 | 49.82223 | 20.21124 | 11263 ft | 293 kts | 8° |
| 2026-05-01 13:00 | 49.84208 | 20.21465 | 10908 ft | 282 kts | 8° |
| 2026-05-01 13:01 | 49.87966 | 20.22098 | 10270 ft | 262 kts | 8° |
| 2026-05-01 13:01 | 49.89729 | 20.22374 | 9989 ft | 253 kts | 7° |
| 2026-05-01 13:01 | 49.93158 | 20.22888 | 9361 ft | 245 kts | 7° |
| 2026-05-01 13:02 | 49.94856 | 20.23137 | 9075 ft | 245 kts | 7° |
| 2026-05-01 13:07 | 50.10560 | 19.98424 | 3185 ft | 185 kts | 262° |
| 2026-05-01 13:07 | 50.10292 | 19.96513 | 2934 ft | 176 kts | 262° |
| 2026-05-01 13:07 | 50.10035 | 19.94686 | 2722 ft | 170 kts | 262° |
| 2026-05-01 13:08 | 50.09791 | 19.92952 | 2494 ft | 159 kts | 262° |
| 2026-05-01 13:08 | 50.09569 | 19.91372 | 2305 ft | 144 kts | 262° |
| 2026-05-01 13:08 | 50.09362 | 19.89882 | 2103 ft | 142 kts | 263° |
| 2026-05-01 13:08 | 50.09151 | 19.88371 | 1887 ft | 140 kts | 262° |
| 2026-05-01 13:09 | 50.08942 | 19.86874 | 1673 ft | 140 kts | 260° |
| 2026-05-01 13:09 | 50.08753 | 19.85427 | 1535 ft | 133 kts | 261° |
| 2026-05-01 13:09 | 50.08571 | 19.84028 | 1368 ft | 131 kts | 261° |
| 2026-05-01 13:09 | 50.08374 | 19.82663 | 1216 ft | 135 kts | 258° |
| 2026-05-01 13:10 | 50.08165 | 19.81248 | 1030 ft | 134 kts | 259° |
| 2026-05-01 13:10 | 50.07960 | 19.79839 | 835 ft | 132 kts | 260° |
| 2026-05-01 13:10 | 50.07786 | 19.78566 | 801 ft | 97 kts | 258° |
| 2026-05-01 13:10 | 50.07682 | 19.77807 | 797 ft | 61 kts | 258° |
| 2026-05-01 13:11 | 50.07600 | 19.77223 | 802 ft | 50 kts | 257° |
| 2026-05-01 13:11 | 50.07515 | 19.76846 | 802 ft | 24 kts | 200° |
| 2026-05-01 13:11 | 50.07355 | 19.76889 | 800 ft | 21 kts | 168° |
| 2026-05-01 13:11 | 50.07318 | 19.77044 | 800 ft | 18 kts | 79° |
| 2026-05-01 13:12 | 50.07344 | 19.77227 | 800 ft | 17 kts | 77° |
| 2026-05-01 13:12 | 50.07367 | 19.77405 | 800 ft | 16 kts | 78° |
| 2026-05-01 13:12 | 50.07390 | 19.77575 | 800 ft | 16 kts | 81° |
| 2026-05-01 13:12 | 50.07413 | 19.77739 | 800 ft | 15 kts | 77° |
| 2026-05-01 13:13 | 50.07437 | 19.77895 | 800 ft | 15 kts | 76° |
| 2026-05-01 13:13 | 50.07457 | 19.78046 | 800 ft | 14 kts | 79° |
| 2026-05-01 13:13 | 50.07477 | 19.78190 | 800 ft | 13 kts | 78° |
| 2026-05-01 13:13 | 50.07497 | 19.78327 | 800 ft | 13 kts | 77° |
| 2026-05-01 13:14 | 50.07516 | 19.78464 | 800 ft | 14 kts | 77° |
| 2026-05-01 13:14 | 50.07540 | 19.78624 | 800 ft | 17 kts | 76° |
| 2026-05-01 13:14 | 50.07566 | 19.78821 | 800 ft | 20 kts | 78° |
| 2026-05-01 13:14 | 50.07598 | 19.79052 | 800 ft | 23 kts | 77° |
| 2026-05-01 13:15 | 50.07633 | 19.79302 | 800 ft | 25 kts | 78° |
| 2026-05-01 13:15 | 50.07672 | 19.79577 | 800 ft | 27 kts | 77° |
| 2026-05-01 13:15 | 50.07703 | 19.79835 | 800 ft | 19 kts | 101° |
| 2026-05-01 13:15 | 50.07593 | 19.79905 | 800 ft | 19 kts | 168° |
| 2026-05-01 13:16 | 50.07510 | 19.79976 | 800 ft | 10 kts | 95° |
| 2026-05-01 13:16 | 50.07512 | 19.80066 | 800 ft | 5 kts | 129° |
| 2026-05-01 13:16 | 50.07475 | 19.80078 | 800 ft | 1 kts | 161° |
| 2026-05-01 13:17 | 50.07472 | 19.80080 | 800 ft | 0 kts | 168° |